Aérodrome :
LOGIN :

S'inscrire | Disclaimer

   EN    FR    IT 

 










Légende :    VFR   VFR Marginal   IFR   IFR Intensif   IFR Très Intensif
Visi : 
Plafond : 
>= 8 km
>= 3000ft
5 à 8 km
1000 à 3000 ft
1500m à 5 km
500 à 1000 ft
800 à 1500m
200 à 500 ft
< 800m
< 200 ft
Symboles :   Orages  Brouillard  Fortes neiges  Fortes précipitations  Vent > 20 kt
SIGMETs :   Divers  Orages  Givrage  Turbulence  Onde Orograph.  Cendres Volcan.






- Altitude de l'aérodrome : 220 ft
- Code IATA : CWL


EGFF - Cardiff Rhoose

DERNIER METAR :
  • 202220Z AUTO 30021KT 9999 OVC008 04/03 Q0977 RERA

METARs EXPIRÉS :
  • 202150Z AUTO 28014KT 9999 -RA BKN008 BKN029 BKN041 04/03 Q0977
  • 202120Z AUTO 29019G29KT 8000 -RA SCT030/// BKN049/// //////TCU 04/03 Q0976
  • 202050Z AUTO 29018KT 9999 -RA SCT037/// //////CB 05/04 Q0975
  • 202020Z AUTO 28016KT 5000 -RA FEW013/// SCT037/// //////CB 06/05 Q0974 RERA
  • 201950Z AUTO 27012KT 4600 RA SCT007/// BKN014/// BKN036/// //////CB 08/08 Q0974 RERA

TAF AMD TAF EGFF
Valide du 20 à 21h jusqu'au 21 à 18h UTC


202135Z 2021/2118 28020G33KT 9999 SCT010 BKN030
TEMPO 2021/2114 4000 SHRA BKN009 BKN028CB
BECMG 2114/2117 27014KT
ATIS : +44 1446 729 319



MET'MAP, la Météo Aéronautique d'un coup d'oeil ! - Copyright ORBIFLY Décembre 2007 - Disclaimer

ORBIFLY MET'MAP TEAM :

Programmation & Développement : Alexandra Zaïnal
Sur une idée originale de : Baudouin d'Aumeries
Assistance à la programmation : Marc-Olivier Méhu
Soutien technique & logistique : Manuel Goepfert

Contact : metmap@orbifly.com




SOURCES & CREDITS :

   NOAA